Terminal Aerodrome Forecast
Issued by NWS Boston, MA

Home | Current Version | Previous Version | Text Only | Print | Product List | Glossary On
Versions: 1 2 3 4 5 6 7 8 9 10 11 12 13 14 15 16 17 18 19 20 21 22 23
000
FTUS41 KBOX 260832 AAA
TAFBDL
TAF AMD
KBDL 260832Z 2609/2712 18006KT P6SM BKN110
     FM261300 20006KT P6SM VCSH BKN050
     FM261500 24006KT P6SM VCSH BKN050
     FM261700 28007KT P6SM SCT040
     FM261900 30008KT P6SM SCT250
     FM270400 34004KT P6SM FEW250=

USA.gov is the U.S. government's official web portal to all federal, state and local government web resources and services.